sensor_id;sensor_type;location;lat;lon;timestamp;temperature;humidity
18173;DHT22;9211;48.818;9.312;2023-04-01T00:01:06;10.10;99.90
18173;DHT22;9211;48.818;9.312;2023-04-01T00:03:34;10.00;99.90
18173;DHT22;9211;48.818;9.312;2023-04-01T00:06:01;10.10;99.90
18173;DHT22;9211;48.818;9.312;2023-04-01T00:08:29;10.20;99.90
18173;DHT22;9211;48.818;9.312;2023-04-01T00:10:56;10.10;99.90
18173;DHT22;9211;48.818;9.312;2023-04-01T00:13:25;10.10;99.90
18173;DHT22;9211;48.818;9.312;2023-04-01T00:15:52;10.10;99.90
18173;DHT22;9211;48.818;9.312;2023-04-01T00:18:19;10.10;99.90
18173;DHT22;9211;48.818;9.312;2023-04-01T00:20:48;10.10;99.90
18173;DHT22;9211;48.818;9.312;2023-04-01T00:23:16;10.20;99.90
18173;DHT22;9211;48.818;9.312;2023-04-01T00:25:44;10.20;99.90
18173;DHT22;9211;48.818;9.312;2023-04-01T00:28:13;10.20;99.90
18173;DHT22;9211;48.818;9.312;2023-04-01T00:30:42;10.20;99.90
18173;DHT22;9211;48.818;9.312;2023-04-01T00:33:09;10.20;99.90
18173;DHT22;9211;48.818;9.312;2023-04-01T00:35:36;10.20;99.90
18173;DHT22;9211;48.818;9.312;2023-04-01T00:38:04;10.20;99.90
18173;DHT22;9211;48.818;9.312;2023-04-01T00:40:33;10.10;99.90
18173;DHT22;9211;48.818;9.312;2023-04-01T00:43:01;10.10;99.90
18173;DHT22;9211;48.818;9.312;2023-04-01T00:45:31;10.10;99.90
18173;DHT22;9211;48.818;9.312;2023-04-01T00:48:03;10.10;99.90
18173;DHT22;9211;48.818;9.312;2023-04-01T00:50:33;10.10;99.90
18173;DHT22;9211;48.818;9.312;2023-04-01T00:53:01;10.10;99.90
18173;DHT22;9211;48.818;9.312;2023-04-01T00:55:32;10.20;99.90
18173;DHT22;9211;48.818;9.312;2023-04-01T00:58:03;10.10;99.90
18173;DHT22;9211;48.818;9.312;2023-04-01T01:00:32;10.10;99.90
18173;DHT22;9211;48.818;9.312;2023-04-01T01:03:00;10.20;99.90
18173;DHT22;9211;48.818;9.312;2023-04-01T01:05:36;10.20;99.90
18173;DHT22;9211;48.818;9.312;2023-04-01T01:08:10;10.20;99.90
18173;DHT22;9211;48.818;9.312;2023-04-01T01:10:41;10.20;99.90
18173;DHT22;9211;48.818;9.312;2023-04-01T01:13:17;10.20;99.90
18173;DHT22;9211;48.818;9.312;2023-04-01T01:15:50;10.20;99.90
18173;DHT22;9211;48.818;9.312;2023-04-01T01:18:25;10.10;99.90
18173;DHT22;9211;48.818;9.312;2023-04-01T01:24:17;10.10;99.90
18173;DHT22;9211;48.818;9.312;2023-04-01T01:26:58;10.10;99.90
18173;DHT22;9211;48.818;9.312;2023-04-01T01:29:54;10.10;99.90
18173;DHT22;9211;48.818;9.312;2023-04-01T01:32:38;10.10;99.90
18173;DHT22;9211;48.818;9.312;2023-04-01T01:35:16;10.10;99.90
18173;DHT22;9211;48.818;9.312;2023-04-01T01:37:47;10.10;99.90
18173;DHT22;9211;48.818;9.312;2023-04-01T01:40:16;10.10;99.90
18173;DHT22;9211;48.818;9.312;2023-04-01T01:42:47;10.10;99.90
18173;DHT22;9211;48.818;9.312;2023-04-01T01:45:17;10.10;99.90
18173;DHT22;9211;48.818;9.312;2023-04-01T01:47:46;10.10;99.90
18173;DHT22;9211;48.818;9.312;2023-04-01T01:50:15;10.10;99.90
18173;DHT22;9211;48.818;9.312;2023-04-01T01:52:43;10.10;99.90
18173;DHT22;9211;48.818;9.312;2023-04-01T01:55:27;10.10;99.90
18173;DHT22;9211;48.818;9.312;2023-04-01T01:57:58;10.00;99.90
18173;DHT22;9211;48.818;9.312;2023-04-01T02:03:08;10.00;99.90
18173;DHT22;9211;48.818;9.312;2023-04-01T02:05:40;10.10;99.90
18173;DHT22;9211;48.818;9.312;2023-04-01T02:08:12;10.00;99.90
18173;DHT22;9211;48.818;9.312;2023-04-01T02:10:45;10.00;99.90
18173;DHT22;9211;48.818;9.312;2023-04-01T02:13:20;10.00;99.90
18173;DHT22;9211;48.818;9.312;2023-04-01T02:15:50;9.90;99.90
18173;DHT22;9211;48.818;9.312;2023-04-01T02:18:21;9.90;99.90
18173;DHT22;9211;48.818;9.312;2023-04-01T02:20:50;9.90;99.90
18173;DHT22;9211;48.818;9.312;2023-04-01T02:23:18;9.90;99.90
18173;DHT22;9211;48.818;9.312;2023-04-01T02:25:47;9.90;99.90
18173;DHT22;9211;48.818;9.312;2023-04-01T02:28:14;9.80;99.90
18173;DHT22;9211;48.818;9.312;2023-04-01T02:30:47;9.90;99.90
18173;DHT22;9211;48.818;9.312;2023-04-01T02:33:15;9.90;99.90
18173;DHT22;9211;48.818;9.312;2023-04-01T02:35:43;9.90;99.90
18173;DHT22;9211;48.818;9.312;2023-04-01T02:38:11;9.80;99.90
18173;DHT22;9211;48.818;9.312;2023-04-01T02:40:46;9.90;99.90
18173;DHT22;9211;48.818;9.312;2023-04-01T02:43:14;9.80;99.90
18173;DHT22;9211;48.818;9.312;2023-04-01T02:45:41;9.80;99.90
18173;DHT22;9211;48.818;9.312;2023-04-01T02:48:08;9.80;99.90
18173;DHT22;9211;48.818;9.312;2023-04-01T02:50:35;9.80;99.90
18173;DHT22;9211;48.818;9.312;2023-04-01T02:53:02;9.80;99.90
18173;DHT22;9211;48.818;9.312;2023-04-01T02:55:33;9.70;99.90
18173;DHT22;9211;48.818;9.312;2023-04-01T02:58:00;9.70;99.90
18173;DHT22;9211;48.818;9.312;2023-04-01T03:00:28;9.70;99.90
18173;DHT22;9211;48.818;9.312;2023-04-01T03:02:55;9.70;99.90
18173;DHT22;9211;48.818;9.312;2023-04-01T03:05:22;9.70;99.90
18173;DHT22;9211;48.818;9.312;2023-04-01T03:07:50;9.60;99.90
18173;DHT22;9211;48.818;9.312;2023-04-01T03:10:17;9.60;99.90
18173;DHT22;9211;48.818;9.312;2023-04-01T03:12:45;9.60;99.90
18173;DHT22;9211;48.818;9.312;2023-04-01T03:15:13;9.50;99.90
18173;DHT22;9211;48.818;9.312;2023-04-01T03:17:42;9.50;99.90
18173;DHT22;9211;48.818;9.312;2023-04-01T03:20:11;9.50;99.90
18173;DHT22;9211;48.818;9.312;2023-04-01T03:22:38;9.50;99.90
18173;DHT22;9211;48.818;9.312;2023-04-01T03:25:06;9.60;99.90
18173;DHT22;9211;48.818;9.312;2023-04-01T03:27:34;9.60;99.90
18173;DHT22;9211;48.818;9.312;2023-04-01T03:30:03;9.60;99.90
18173;DHT22;9211;48.818;9.312;2023-04-01T03:32:33;9.60;99.90
18173;DHT22;9211;48.818;9.312;2023-04-01T03:35:00;9.60;99.90
18173;DHT22;9211;48.818;9.312;2023-04-01T03:37:28;9.60;99.90
18173;DHT22;9211;48.818;9.312;2023-04-01T03:39:55;9.50;99.90
18173;DHT22;9211;48.818;9.312;2023-04-01T03:42:22;9.50;99.90
18173;DHT22;9211;48.818;9.312;2023-04-01T03:44:49;9.50;99.90
18173;DHT22;9211;48.818;9.312;2023-04-01T03:47:17;9.50;99.90
18173;DHT22;9211;48.818;9.312;2023-04-01T03:49:44;9.50;99.90
18173;DHT22;9211;48.818;9.312;2023-04-01T03:52:11;9.50;99.90
18173;DHT22;9211;48.818;9.312;2023-04-01T03:54:39;9.40;99.90
18173;DHT22;9211;48.818;9.312;2023-04-01T03:57:07;9.50;99.90
18173;DHT22;9211;48.818;9.312;2023-04-01T03:59:34;9.50;99.90
18173;DHT22;9211;48.818;9.312;2023-04-01T04:02:02;9.40;99.90
18173;DHT22;9211;48.818;9.312;2023-04-01T04:04:30;9.40;99.90
18173;DHT22;9211;48.818;9.312;2023-04-01T04:06:58;9.40;99.90
18173;DHT22;9211;48.818;9.312;2023-04-01T04:09:27;9.50;99.90
18173;DHT22;9211;48.818;9.312;2023-04-01T04:11:56;9.40;99.90
18173;DHT22;9211;48.818;9.312;2023-04-01T04:14:23;9.40;99.90
18173;DHT22;9211;48.818;9.312;2023-04-01T04:16:51;9.40;99.90
18173;DHT22;9211;48.818;9.312;2023-04-01T04:19:18;9.40;99.90
18173;DHT22;9211;48.818;9.312;2023-04-01T04:21:46;9.40;99.90
18173;DHT22;9211;48.818;9.312;2023-04-01T04:24:14;9.40;99.90
18173;DHT22;9211;48.818;9.312;2023-04-01T04:26:57;9.40;99.90
18173;DHT22;9211;48.818;9.312;2023-04-01T04:29:24;9.30;99.90
18173;DHT22;9211;48.818;9.312;2023-04-01T04:31:52;9.40;99.90
18173;DHT22;9211;48.818;9.312;2023-04-01T04:34:19;9.40;99.90
18173;DHT22;9211;48.818;9.312;2023-04-01T04:36:49;9.30;99.90
18173;DHT22;9211;48.818;9.312;2023-04-01T04:39:16;9.30;99.90
18173;DHT22;9211;48.818;9.312;2023-04-01T04:41:44;9.30;99.90
18173;DHT22;9211;48.818;9.312;2023-04-01T04:44:11;9.20;99.90
18173;DHT22;9211;48.818;9.312;2023-04-01T04:46:38;9.20;99.90
18173;DHT22;9211;48.818;9.312;2023-04-01T04:49:12;9.10;99.90
18173;DHT22;9211;48.818;9.312;2023-04-01T04:51:39;9.10;99.90
18173;DHT22;9211;48.818;9.312;2023-04-01T04:54:07;9.10;99.90
18173;DHT22;9211;48.818;9.312;2023-04-01T04:57:06;9.10;99.90
18173;DHT22;9211;48.818;9.312;2023-04-01T04:59:41;9.10;99.90
18173;DHT22;9211;48.818;9.312;2023-04-01T05:02:12;9.10;99.90
18173;DHT22;9211;48.818;9.312;2023-04-01T05:04:39;9.10;99.90
18173;DHT22;9211;48.818;9.312;2023-04-01T05:07:08;9.10;99.90
18173;DHT22;9211;48.818;9.312;2023-04-01T05:09:37;9.10;99.90
18173;DHT22;9211;48.818;9.312;2023-04-01T05:12:04;9.10;99.90
18173;DHT22;9211;48.818;9.312;2023-04-01T05:14:51;9.10;99.90
18173;DHT22;9211;48.818;9.312;2023-04-01T05:17:18;9.10;99.90
18173;DHT22;9211;48.818;9.312;2023-04-01T05:19:45;9.10;99.90
18173;DHT22;9211;48.818;9.312;2023-04-01T05:22:12;9.10;99.90
18173;DHT22;9211;48.818;9.312;2023-04-01T05:24:41;9.10;99.90
18173;DHT22;9211;48.818;9.312;2023-04-01T05:27:08;9.20;99.90
18173;DHT22;9211;48.818;9.312;2023-04-01T05:29:38;9.20;99.90
18173;DHT22;9211;48.818;9.312;2023-04-01T05:32:09;9.20;99.90
18173;DHT22;9211;48.818;9.312;2023-04-01T05:34:36;9.20;99.90
18173;DHT22;9211;48.818;9.312;2023-04-01T05:37:03;9.20;99.90
18173;DHT22;9211;48.818;9.312;2023-04-01T05:39:30;9.20;99.90
18173;DHT22;9211;48.818;9.312;2023-04-01T05:41:59;9.30;99.90
18173;DHT22;9211;48.818;9.312;2023-04-01T05:44:26;9.30;99.90
18173;DHT22;9211;48.818;9.312;2023-04-01T05:47:02;9.30;99.90
18173;DHT22;9211;48.818;9.312;2023-04-01T05:49:30;9.30;99.90
18173;DHT22;9211;48.818;9.312;2023-04-01T05:51:57;9.40;99.90
18173;DHT22;9211;48.818;9.312;2023-04-01T05:54:24;9.50;99.90
18173;DHT22;9211;48.818;9.312;2023-04-01T05:56:51;9.50;99.90
18173;DHT22;9211;48.818;9.312;2023-04-01T05:59:21;9.50;99.90
18173;DHT22;9211;48.818;9.312;2023-04-01T06:01:48;9.50;99.90
18173;DHT22;9211;48.818;9.312;2023-04-01T06:04:16;9.60;99.90
18173;DHT22;9211;48.818;9.312;2023-04-01T06:06:44;9.70;99.90
18173;DHT22;9211;48.818;9.312;2023-04-01T06:09:14;9.70;99.90
18173;DHT22;9211;48.818;9.312;2023-04-01T06:12:04;9.70;99.90
18173;DHT22;9211;48.818;9.312;2023-04-01T06:14:55;9.80;99.90
18173;DHT22;9211;48.818;9.312;2023-04-01T06:17:37;9.80;99.90
18173;DHT22;9211;48.818;9.312;2023-04-01T06:20:15;9.90;99.90
18173;DHT22;9211;48.818;9.312;2023-04-01T06:23:03;9.90;99.90
18173;DHT22;9211;48.818;9.312;2023-04-01T06:28:51;10.10;99.90
18173;DHT22;9211;48.818;9.312;2023-04-01T06:31:32;10.20;99.90
18173;DHT22;9211;48.818;9.312;2023-04-01T06:34:17;10.30;99.90
18173;DHT22;9211;48.818;9.312;2023-04-01T06:37:01;10.30;99.90
18173;DHT22;9211;48.818;9.312;2023-04-01T06:39:42;10.30;99.90
18173;DHT22;9211;48.818;9.312;2023-04-01T06:42:44;10.40;99.90
18173;DHT22;9211;48.818;9.312;2023-04-01T06:45:43;10.40;99.90
18173;DHT22;9211;48.818;9.312;2023-04-01T06:48:44;10.40;99.90
18173;DHT22;9211;48.818;9.312;2023-04-01T06:51:41;10.40;99.90
18173;DHT22;9211;48.818;9.312;2023-04-01T06:54:32;10.40;99.90
18173;DHT22;9211;48.818;9.312;2023-04-01T06:57:11;10.40;99.90
18173;DHT22;9211;48.818;9.312;2023-04-01T06:59:44;10.40;99.90
18173;DHT22;9211;48.818;9.312;2023-04-01T07:02:22;10.50;99.90
18173;DHT22;9211;48.818;9.312;2023-04-01T07:04:54;10.40;99.90
18173;DHT22;9211;48.818;9.312;2023-04-01T07:07:29;10.50;99.90
18173;DHT22;9211;48.818;9.312;2023-04-01T07:10:05;10.50;99.90
18173;DHT22;9211;48.818;9.312;2023-04-01T07:12:58;10.50;99.90
18173;DHT22;9211;48.818;9.312;2023-04-01T07:16:12;10.60;99.90
18173;DHT22;9211;48.818;9.312;2023-04-01T07:18:45;10.60;99.90
18173;DHT22;9211;48.818;9.312;2023-04-01T07:21:23;10.70;99.90
18173;DHT22;9211;48.818;9.312;2023-04-01T07:23:56;10.70;99.90
18173;DHT22;9211;48.818;9.312;2023-04-01T07:26:34;10.70;99.90
18173;DHT22;9211;48.818;9.312;2023-04-01T07:29:22;10.70;99.90
18173;DHT22;9211;48.818;9.312;2023-04-01T07:32:14;10.70;99.90
18173;DHT22;9211;48.818;9.312;2023-04-01T07:34:53;10.70;99.90
18173;DHT22;9211;48.818;9.312;2023-04-01T07:37:29;10.70;99.90
18173;DHT22;9211;48.818;9.312;2023-04-01T07:40:08;10.70;99.90
18173;DHT22;9211;48.818;9.312;2023-04-01T07:42:48;10.60;99.90
18173;DHT22;9211;48.818;9.312;2023-04-01T07:45:25;10.60;99.90
18173;DHT22;9211;48.818;9.312;2023-04-01T07:48:08;10.60;99.90
18173;DHT22;9211;48.818;9.312;2023-04-01T07:50:41;10.70;99.90
18173;DHT22;9211;48.818;9.312;2023-04-01T07:53:18;10.60;99.90
18173;DHT22;9211;48.818;9.312;2023-04-01T07:55:58;10.60;99.90
18173;DHT22;9211;48.818;9.312;2023-04-01T07:58:38;10.60;99.90
18173;DHT22;9211;48.818;9.312;2023-04-01T08:01:15;10.70;99.90
18173;DHT22;9211;48.818;9.312;2023-04-01T08:06:59;10.70;99.90
18173;DHT22;9211;48.818;9.312;2023-04-01T08:09:37;10.80;99.90
18173;DHT22;9211;48.818;9.312;2023-04-01T08:12:35;10.80;99.90
18173;DHT22;9211;48.818;9.312;2023-04-01T08:15:28;10.90;99.90
18173;DHT22;9211;48.818;9.312;2023-04-01T08:18:15;10.90;99.90
18173;DHT22;9211;48.818;9.312;2023-04-01T08:20:47;10.80;99.90
18173;DHT22;9211;48.818;9.312;2023-04-01T08:23:18;10.90;99.90
18173;DHT22;9211;48.818;9.312;2023-04-01T08:25:50;10.90;99.90
18173;DHT22;9211;48.818;9.312;2023-04-01T08:28:24;10.90;99.90
18173;DHT22;9211;48.818;9.312;2023-04-01T08:30:56;11.00;99.90
18173;DHT22;9211;48.818;9.312;2023-04-01T08:33:27;11.00;99.90
18173;DHT22;9211;48.818;9.312;2023-04-01T08:36:05;11.00;99.90
18173;DHT22;9211;48.818;9.312;2023-04-01T08:38:39;11.00;99.90
18173;DHT22;9211;48.818;9.312;2023-04-01T08:41:20;11.00;99.90
18173;DHT22;9211;48.818;9.312;2023-04-01T08:47:20;11.10;99.90
18173;DHT22;9211;48.818;9.312;2023-04-01T08:50:21;11.10;99.90
18173;DHT22;9211;48.818;9.312;2023-04-01T08:53:21;11.00;99.90
18173;DHT22;9211;48.818;9.312;2023-04-01T08:56:05;11.00;99.90
18173;DHT22;9211;48.818;9.312;2023-04-01T08:58:53;10.90;99.90
18173;DHT22;9211;48.818;9.312;2023-04-01T09:01:47;10.90;99.90
18173;DHT22;9211;48.818;9.312;2023-04-01T09:04:47;10.90;99.90
18173;DHT22;9211;48.818;9.312;2023-04-01T09:07:30;10.90;99.90
18173;DHT22;9211;48.818;9.312;2023-04-01T09:10:23;10.80;99.90
18173;DHT22;9211;48.818;9.312;2023-04-01T09:13:13;10.70;99.90
18173;DHT22;9211;48.818;9.312;2023-04-01T09:15:54;10.70;99.90
18173;DHT22;9211;48.818;9.312;2023-04-01T09:18:49;10.60;99.90
18173;DHT22;9211;48.818;9.312;2023-04-01T09:21:48;10.60;99.90
18173;DHT22;9211;48.818;9.312;2023-04-01T09:24:36;10.60;99.90
18173;DHT22;9211;48.818;9.312;2023-04-01T09:27:15;10.70;99.90
18173;DHT22;9211;48.818;9.312;2023-04-01T09:30:19;10.70;99.90
18173;DHT22;9211;48.818;9.312;2023-04-01T09:33:27;10.80;99.90
18173;DHT22;9211;48.818;9.312;2023-04-01T09:36:07;10.80;99.90
18173;DHT22;9211;48.818;9.312;2023-04-01T09:38:52;10.90;99.90
18173;DHT22;9211;48.818;9.312;2023-04-01T09:41:28;10.90;99.90
18173;DHT22;9211;48.818;9.312;2023-04-01T09:44:23;11.00;99.90
18173;DHT22;9211;48.818;9.312;2023-04-01T09:47:21;11.10;99.90
18173;DHT22;9211;48.818;9.312;2023-04-01T09:50:12;11.20;99.90
18173;DHT22;9211;48.818;9.312;2023-04-01T09:52:47;11.20;99.90
18173;DHT22;9211;48.818;9.312;2023-04-01T09:55:49;11.20;99.90
18173;DHT22;9211;48.818;9.312;2023-04-01T10:02:31;11.20;99.90
18173;DHT22;9211;48.818;9.312;2023-04-01T10:14:44;11.10;99.90
18173;DHT22;9211;48.818;9.312;2023-04-01T10:27:06;11.20;99.90
18173;DHT22;9211;48.818;9.312;2023-04-01T10:33:19;11.30;99.90
18173;DHT22;9211;48.818;9.312;2023-04-01T10:39:20;11.30;99.90
18173;DHT22;9211;48.818;9.312;2023-04-01T10:49:26;11.40;99.90
18173;DHT22;9211;48.818;9.312;2023-04-01T10:55:36;11.30;99.90
18173;DHT22;9211;48.818;9.312;2023-04-01T11:08:53;11.30;99.90
18173;DHT22;9211;48.818;9.312;2023-04-01T11:20:49;11.40;99.90
18173;DHT22;9211;48.818;9.312;2023-04-01T11:23:51;11.40;99.90
18173;DHT22;9211;48.818;9.312;2023-04-01T11:26:32;11.50;99.90
18173;DHT22;9211;48.818;9.312;2023-04-01T11:32:52;11.50;99.90
18173;DHT22;9211;48.818;9.312;2023-04-01T11:35:34;11.60;99.90
18173;DHT22;9211;48.818;9.312;2023-04-01T11:38:25;11.60;99.90
18173;DHT22;9211;48.818;9.312;2023-04-01T11:41:01;11.70;99.90
18173;DHT22;9211;48.818;9.312;2023-04-01T11:44:09;11.60;99.90
18173;DHT22;9211;48.818;9.312;2023-04-01T11:46:56;11.70;99.90
18173;DHT22;9211;48.818;9.312;2023-04-01T11:49:41;11.70;99.90
18173;DHT22;9211;48.818;9.312;2023-04-01T11:52:34;11.80;99.90
18173;DHT22;9211;48.818;9.312;2023-04-01T11:55:23;11.80;99.90
18173;DHT22;9211;48.818;9.312;2023-04-01T11:58:11;11.80;99.90
18173;DHT22;9211;48.818;9.312;2023-04-01T12:00:53;11.80;99.90
18173;DHT22;9211;48.818;9.312;2023-04-01T12:03:48;11.80;99.90
18173;DHT22;9211;48.818;9.312;2023-04-01T12:06:29;11.80;99.90
18173;DHT22;9211;48.818;9.312;2023-04-01T12:09:02;11.90;99.90
18173;DHT22;9211;48.818;9.312;2023-04-01T12:11:36;11.90;99.90
18173;DHT22;9211;48.818;9.312;2023-04-01T12:14:13;11.90;99.90
18173;DHT22;9211;48.818;9.312;2023-04-01T12:16:51;11.80;99.90
18173;DHT22;9211;48.818;9.312;2023-04-01T12:19:27;11.80;99.90
18173;DHT22;9211;48.818;9.312;2023-04-01T12:22:16;11.80;99.90
18173;DHT22;9211;48.818;9.312;2023-04-01T12:24:47;11.80;99.90
18173;DHT22;9211;48.818;9.312;2023-04-01T12:27:38;11.90;99.90
18173;DHT22;9211;48.818;9.312;2023-04-01T12:30:26;11.90;99.90
18173;DHT22;9211;48.818;9.312;2023-04-01T12:35:58;12.00;99.90
18173;DHT22;9211;48.818;9.312;2023-04-01T12:38:35;12.00;99.90
18173;DHT22;9211;48.818;9.312;2023-04-01T12:41:08;12.00;99.90
18173;DHT22;9211;48.818;9.312;2023-04-01T12:47:15;12.00;99.90
18173;DHT22;9211;48.818;9.312;2023-04-01T12:49:56;11.90;99.90
18173;DHT22;9211;48.818;9.312;2023-04-01T12:52:34;11.90;99.90
18173;DHT22;9211;48.818;9.312;2023-04-01T12:55:37;11.90;99.90
18173;DHT22;9211;48.818;9.312;2023-04-01T13:01:59;11.90;99.90
18173;DHT22;9211;48.818;9.312;2023-04-01T13:05:06;12.00;99.90
18173;DHT22;9211;48.818;9.312;2023-04-01T13:07:53;12.00;99.90
18173;DHT22;9211;48.818;9.312;2023-04-01T13:10:38;12.00;99.90
18173;DHT22;9211;48.818;9.312;2023-04-01T13:13:39;12.00;99.90
18173;DHT22;9211;48.818;9.312;2023-04-01T13:16:14;12.00;99.90
18173;DHT22;9211;48.818;9.312;2023-04-01T13:18:55;12.00;99.90
18173;DHT22;9211;48.818;9.312;2023-04-01T13:21:33;12.00;99.90
18173;DHT22;9211;48.818;9.312;2023-04-01T13:24:08;12.00;99.90
18173;DHT22;9211;48.818;9.312;2023-04-01T13:26:41;12.00;99.90
18173;DHT22;9211;48.818;9.312;2023-04-01T13:29:15;12.00;99.90
18173;DHT22;9211;48.818;9.312;2023-04-01T13:32:02;12.00;99.90
18173;DHT22;9211;48.818;9.312;2023-04-01T13:34:44;11.90;99.90
18173;DHT22;9211;48.818;9.312;2023-04-01T13:37:25;11.90;99.90
18173;DHT22;9211;48.818;9.312;2023-04-01T13:40:05;12.00;99.90
18173;DHT22;9211;48.818;9.312;2023-04-01T13:42:41;12.10;99.90
18173;DHT22;9211;48.818;9.312;2023-04-01T13:45:15;12.10;99.90
18173;DHT22;9211;48.818;9.312;2023-04-01T13:48:24;12.10;99.90
18173;DHT22;9211;48.818;9.312;2023-04-01T13:54:04;12.10;99.90
18173;DHT22;9211;48.818;9.312;2023-04-01T13:56:41;12.00;99.90
18173;DHT22;9211;48.818;9.312;2023-04-01T14:02:35;12.00;99.90
18173;DHT22;9211;48.818;9.312;2023-04-01T14:05:27;12.10;99.90
18173;DHT22;9211;48.818;9.312;2023-04-01T14:08:04;12.00;99.90
18173;DHT22;9211;48.818;9.312;2023-04-01T14:10:42;12.00;99.90
18173;DHT22;9211;48.818;9.312;2023-04-01T14:13:15;12.00;99.90
18173;DHT22;9211;48.818;9.312;2023-04-01T14:16:17;12.10;99.90
18173;DHT22;9211;48.818;9.312;2023-04-01T14:19:08;12.10;99.90
18173;DHT22;9211;48.818;9.312;2023-04-01T14:21:41;12.00;99.90
18173;DHT22;9211;48.818;9.312;2023-04-01T14:24:32;12.00;99.90
18173;DHT22;9211;48.818;9.312;2023-04-01T14:27:42;12.00;99.90
18173;DHT22;9211;48.818;9.312;2023-04-01T14:30:43;11.90;99.90
18173;DHT22;9211;48.818;9.312;2023-04-01T14:33:25;11.90;99.90
18173;DHT22;9211;48.818;9.312;2023-04-01T14:36:18;11.90;99.90
18173;DHT22;9211;48.818;9.312;2023-04-01T14:38:55;11.90;99.90
18173;DHT22;9211;48.818;9.312;2023-04-01T14:41:33;11.90;99.90
18173;DHT22;9211;48.818;9.312;2023-04-01T14:44:28;11.90;99.90
18173;DHT22;9211;48.818;9.312;2023-04-01T14:47:28;11.80;99.90
18173;DHT22;9211;48.818;9.312;2023-04-01T14:50:06;11.70;99.90
18173;DHT22;9211;48.818;9.312;2023-04-01T14:52:38;11.70;99.90
18173;DHT22;9211;48.818;9.312;2023-04-01T14:55:21;11.70;99.90
18173;DHT22;9211;48.818;9.312;2023-04-01T14:58:04;11.70;99.90
18173;DHT22;9211;48.818;9.312;2023-04-01T15:00:48;11.70;99.90
18173;DHT22;9211;48.818;9.312;2023-04-01T15:03:20;11.60;99.90
18173;DHT22;9211;48.818;9.312;2023-04-01T15:05:52;11.60;99.90
18173;DHT22;9211;48.818;9.312;2023-04-01T15:08:23;11.60;99.90
18173;DHT22;9211;48.818;9.312;2023-04-01T15:14:14;11.70;99.90
18173;DHT22;9211;48.818;9.312;2023-04-01T15:16:55;11.60;99.90
18173;DHT22;9211;48.818;9.312;2023-04-01T15:19:31;11.70;99.90
18173;DHT22;9211;48.818;9.312;2023-04-01T15:22:24;11.70;99.90
18173;DHT22;9211;48.818;9.312;2023-04-01T15:25:05;11.80;99.90
18173;DHT22;9211;48.818;9.312;2023-04-01T15:27:44;11.80;99.90
18173;DHT22;9211;48.818;9.312;2023-04-01T15:30:23;11.80;99.90
18173;DHT22;9211;48.818;9.312;2023-04-01T15:33:13;11.70;99.90
18173;DHT22;9211;48.818;9.312;2023-04-01T15:35:46;11.70;99.90
18173;DHT22;9211;48.818;9.312;2023-04-01T15:38:26;11.70;99.90
18173;DHT22;9211;48.818;9.312;2023-04-01T15:41:03;11.70;99.90
18173;DHT22;9211;48.818;9.312;2023-04-01T15:43:40;11.70;99.90
18173;DHT22;9211;48.818;9.312;2023-04-01T15:46:36;11.80;99.90
18173;DHT22;9211;48.818;9.312;2023-04-01T15:49:20;11.80;99.90
18173;DHT22;9211;48.818;9.312;2023-04-01T15:51:55;11.80;99.90
18173;DHT22;9211;48.818;9.312;2023-04-01T15:54:27;11.80;99.90
18173;DHT22;9211;48.818;9.312;2023-04-01T15:57:08;11.80;99.90
18173;DHT22;9211;48.818;9.312;2023-04-01T16:00:10;11.80;99.90
18173;DHT22;9211;48.818;9.312;2023-04-01T16:02:46;11.70;99.90
18173;DHT22;9211;48.818;9.312;2023-04-01T16:05:28;11.70;99.90
18173;DHT22;9211;48.818;9.312;2023-04-01T16:08:09;11.70;99.90
18173;DHT22;9211;48.818;9.312;2023-04-01T16:13:42;11.70;99.90
18173;DHT22;9211;48.818;9.312;2023-04-01T16:16:21;11.70;99.90
18173;DHT22;9211;48.818;9.312;2023-04-01T16:19:19;11.70;99.90
18173;DHT22;9211;48.818;9.312;2023-04-01T16:21:59;11.70;99.90
18173;DHT22;9211;48.818;9.312;2023-04-01T16:24:34;11.70;99.90
18173;DHT22;9211;48.818;9.312;2023-04-01T16:27:05;11.70;99.90
18173;DHT22;9211;48.818;9.312;2023-04-01T16:29:41;11.70;99.90
18173;DHT22;9211;48.818;9.312;2023-04-01T16:32:27;11.70;99.90
18173;DHT22;9211;48.818;9.312;2023-04-01T16:35:04;11.70;99.90
18173;DHT22;9211;48.818;9.312;2023-04-01T16:37:43;11.70;99.90
18173;DHT22;9211;48.818;9.312;2023-04-01T16:40:20;11.70;99.90
18173;DHT22;9211;48.818;9.312;2023-04-01T16:42:52;11.70;99.90
18173;DHT22;9211;48.818;9.312;2023-04-01T16:45:26;11.60;99.90
18173;DHT22;9211;48.818;9.312;2023-04-01T16:47:59;11.60;99.90
18173;DHT22;9211;48.818;9.312;2023-04-01T16:50:42;11.60;99.90
18173;DHT22;9211;48.818;9.312;2023-04-01T16:53:18;11.60;99.90
18173;DHT22;9211;48.818;9.312;2023-04-01T16:55:50;11.60;99.90
18173;DHT22;9211;48.818;9.312;2023-04-01T16:58:22;11.50;99.90
18173;DHT22;9211;48.818;9.312;2023-04-01T17:00:55;11.50;99.90
18173;DHT22;9211;48.818;9.312;2023-04-01T17:03:27;11.50;99.90
18173;DHT22;9211;48.818;9.312;2023-04-01T17:06:07;11.50;99.90
18173;DHT22;9211;48.818;9.312;2023-04-01T17:08:59;11.50;99.90
18173;DHT22;9211;48.818;9.312;2023-04-01T17:11:33;11.50;99.90
18173;DHT22;9211;48.818;9.312;2023-04-01T17:14:13;11.50;99.90
18173;DHT22;9211;48.818;9.312;2023-04-01T17:16:50;11.50;99.90
18173;DHT22;9211;48.818;9.312;2023-04-01T17:22:28;11.50;99.90
18173;DHT22;9211;48.818;9.312;2023-04-01T17:25:17;11.60;99.90
18173;DHT22;9211;48.818;9.312;2023-04-01T17:27:51;11.60;99.90
18173;DHT22;9211;48.818;9.312;2023-04-01T17:30:27;11.50;99.90
18173;DHT22;9211;48.818;9.312;2023-04-01T17:33:22;11.50;99.90
18173;DHT22;9211;48.818;9.312;2023-04-01T17:35:58;11.50;99.90
18173;DHT22;9211;48.818;9.312;2023-04-01T17:38:39;11.60;99.90
18173;DHT22;9211;48.818;9.312;2023-04-01T17:41:19;11.60;99.90
18173;DHT22;9211;48.818;9.312;2023-04-01T17:43:55;11.60;99.90
18173;DHT22;9211;48.818;9.312;2023-04-01T17:46:35;11.60;99.90
18173;DHT22;9211;48.818;9.312;2023-04-01T17:49:18;11.60;99.90
18173;DHT22;9211;48.818;9.312;2023-04-01T17:51:53;11.60;99.90
18173;DHT22;9211;48.818;9.312;2023-04-01T17:54:28;11.60;99.90
18173;DHT22;9211;48.818;9.312;2023-04-01T17:57:22;11.60;99.90
18173;DHT22;9211;48.818;9.312;2023-04-01T17:59:58;11.50;99.90
18173;DHT22;9211;48.818;9.312;2023-04-01T18:02:42;11.50;99.90
18173;DHT22;9211;48.818;9.312;2023-04-01T18:05:27;11.50;99.90
18173;DHT22;9211;48.818;9.312;2023-04-01T18:11:00;11.50;99.90
18173;DHT22;9211;48.818;9.312;2023-04-01T18:16:44;11.40;99.90
18173;DHT22;9211;48.818;9.312;2023-04-01T18:19:22;11.40;99.90
18173;DHT22;9211;48.818;9.312;2023-04-01T18:21:55;11.30;99.90
18173;DHT22;9211;48.818;9.312;2023-04-01T18:24:47;11.30;99.90
18173;DHT22;9211;48.818;9.312;2023-04-01T18:27:29;11.20;99.90
18173;DHT22;9211;48.818;9.312;2023-04-01T18:30:06;11.20;99.90
18173;DHT22;9211;48.818;9.312;2023-04-01T18:32:35;11.10;99.90
18173;DHT22;9211;48.818;9.312;2023-04-01T18:35:17;11.10;99.90
18173;DHT22;9211;48.818;9.312;2023-04-01T18:37:49;11.10;99.90
18173;DHT22;9211;48.818;9.312;2023-04-01T18:40:20;11.00;99.90
18173;DHT22;9211;48.818;9.312;2023-04-01T18:42:59;11.00;99.90
18173;DHT22;9211;48.818;9.312;2023-04-01T18:45:33;11.00;99.90
18173;DHT22;9211;48.818;9.312;2023-04-01T18:48:15;11.00;99.90